KONA

Winona Municipal-Max Conrad Field Airport

Winona, Minnesota, USA
METAR KONA 160556Z AUTO 00000KT 10SM CLR 22/21 A2993 RMK AO2
Observed Flight Rules
Aug-16 @ 05:56 UTC (20 minutes ago) Visual Flight Rules
Visibility Clouds
10 miles
  • Clear skies
Temperatures Readings
Current 22°C / 72°F
Dewpoint 21°C / 70°F
Humidity 94%
Altimeter 29.93" Hg
Pressure 1014 hPa
Elevation 200
METAR KONA 160556Z AUTO 00000KT 10SM CLR 22/21 A2993 RMK AO2
Observed Flight Rules
Aug-16 @ 05:56 UTC
(20 minutes ago)
VFR
Clouds
  • Clear skies
Temperature Dewpoint
22°C / 72°F 21°C / 70°F
Humidity Altimeter Pressure
94% 29.93" Hg 1014 hPa